createdAt,value
2017-03-06T00:00:08.049Z,986.38
2017-03-06T00:01:08.083Z,986.34
2017-03-06T00:02:08.116Z,986.33
2017-03-06T00:03:08.149Z,986.31
2017-03-06T00:04:08.185Z,986.29
2017-03-06T00:05:08.216Z,986.37
2017-03-06T00:06:08.250Z,986.35
2017-03-06T00:07:08.284Z,986.32
2017-03-06T00:08:08.318Z,986.33
2017-03-06T00:09:08.354Z,986.3
2017-03-06T00:10:08.384Z,986.3
2017-03-06T00:11:08.420Z,986.32
2017-03-06T00:12:08.452Z,986.27
2017-03-06T00:13:08.485Z,986.34
2017-03-06T00:14:08.520Z,986.31
2017-03-06T00:15:08.552Z,986.3
2017-03-06T00:16:08.584Z,986.28
2017-03-06T00:17:08.621Z,986.31
2017-03-06T00:18:08.653Z,986.34
2017-03-06T00:19:08.689Z,986.3
2017-03-06T00:20:08.721Z,986.32
2017-03-06T00:21:08.755Z,986.32
2017-03-06T00:22:08.789Z,986.36
2017-03-06T00:23:08.822Z,986.3
2017-03-06T00:24:08.858Z,986.31
2017-03-06T00:25:08.890Z,986.3
2017-03-06T00:26:08.922Z,986.3
2017-03-06T00:27:08.955Z,986.29
2017-03-06T00:28:08.990Z,986.35
2017-03-06T00:29:09.026Z,986.32
2017-03-06T00:30:09.057Z,986.3
2017-03-06T00:31:09.090Z,986.31
2017-03-06T00:32:09.124Z,986.35
2017-03-06T00:33:09.159Z,986.3
2017-03-06T00:34:09.193Z,986.35
2017-03-06T00:35:09.226Z,986.32
2017-03-06T00:36:09.259Z,986.32
2017-03-06T00:37:09.294Z,986.33
2017-03-06T00:38:09.326Z,986.31
2017-03-06T00:39:09.361Z,986.35
2017-03-06T00:40:09.394Z,986.32
2017-03-06T00:41:09.427Z,986.31
2017-03-06T00:42:09.460Z,986.32
2017-03-06T00:43:09.494Z,986.37
2017-03-06T00:44:09.529Z,986.33
2017-03-06T00:45:09.561Z,986.33
2017-03-06T00:46:09.595Z,986.29
2017-03-06T00:47:09.631Z,986.29
2017-03-06T00:48:09.663Z,986.3
2017-03-06T00:49:09.696Z,986.32
2017-03-06T00:50:09.730Z,986.33
2017-03-06T00:51:09.765Z,986.33
2017-03-06T00:52:09.811Z,986.31
2017-03-06T00:53:09.832Z,986.31
2017-03-06T00:54:09.866Z,986.3
2017-03-06T00:55:09.899Z,986.29
2017-03-06T00:56:09.933Z,986.33
2017-03-06T00:57:09.966Z,986.27
2017-03-06T00:58:10.001Z,986.28
2017-03-06T00:59:10.035Z,986.29
2017-03-06T01:00:10.071Z,986.29
2017-03-06T01:01:10.101Z,986.31
2017-03-06T01:02:10.136Z,986.33
2017-03-06T01:03:10.168Z,986.34
2017-03-06T01:04:10.202Z,986.24
2017-03-06T01:05:10.237Z,986.26
2017-03-06T01:06:10.268Z,986.23
2017-03-06T01:07:10.302Z,986.25
2017-03-06T01:08:10.336Z,986.27
2017-03-06T01:09:10.372Z,986.24
2017-03-06T01:10:10.404Z,986.22
2017-03-06T01:11:10.437Z,986.25
2017-03-06T01:12:10.469Z,986.23
2017-03-06T01:13:10.504Z,986.21
2017-03-06T01:14:10.537Z,986.22
2017-03-06T01:15:10.572Z,986.24
2017-03-06T01:16:10.606Z,986.25
2017-03-06T01:17:10.639Z,986.23
2017-03-06T01:18:10.672Z,986.24
2017-03-06T01:19:10.707Z,986.26
2017-03-06T01:20:10.740Z,986.25
2017-03-06T01:21:10.772Z,986.21
2017-03-06T01:22:10.806Z,986.24
2017-03-06T01:23:10.840Z,986.25
2017-03-06T01:24:10.875Z,986.21
2017-03-06T01:25:10.906Z,986.2
2017-03-06T01:26:10.940Z,986.23
2017-03-06T01:27:10.974Z,986.2
2017-03-06T01:28:11.009Z,986.18
2017-03-06T01:29:11.043Z,986.2
2017-03-06T01:30:11.074Z,986.24
2017-03-06T01:31:11.110Z,986.2
2017-03-06T01:32:11.143Z,986.19
2017-03-06T01:33:11.175Z,986.17
2017-03-06T01:34:11.210Z,986.17
2017-03-06T01:35:11.245Z,986.07
2017-03-06T01:36:11.278Z,986.14
2017-03-06T01:37:11.310Z,986.18
2017-03-06T01:38:11.344Z,986.14
2017-03-06T01:39:11.378Z,986.12
2017-03-06T01:40:11.410Z,986.13
2017-03-06T01:41:11.446Z,986.1
2017-03-06T01:42:11.479Z,986.1
2017-03-06T01:43:11.512Z,986.12
2017-03-06T01:44:11.545Z,986.1
2017-03-06T01:45:11.581Z,986.11
2017-03-06T01:46:11.614Z,986.15
2017-03-06T01:47:11.647Z,986.13
2017-03-06T01:48:11.680Z,986.16
2017-03-06T01:49:11.717Z,986.11
2017-03-06T01:50:11.752Z,986.07
2017-03-06T01:51:11.782Z,986.11
2017-03-06T01:52:11.817Z,986.04
2017-03-06T01:53:11.850Z,986.1
2017-03-06T01:54:11.884Z,986.11
2017-03-06T01:55:11.917Z,986.12
2017-03-06T01:56:11.952Z,986.08
2017-03-06T01:57:11.986Z,986.07
2017-03-06T01:58:12.018Z,986.12
2017-03-06T01:59:12.052Z,986.11
2017-03-06T02:00:12.087Z,986.07
2017-03-06T02:01:12.120Z,986.05
2017-03-06T02:02:12.154Z,986.06
2017-03-06T02:03:12.188Z,986.1
2017-03-06T02:04:12.222Z,986.02
2017-03-06T02:05:12.254Z,986.05
2017-03-06T02:06:12.289Z,986.06
2017-03-06T02:07:12.323Z,986.03
2017-03-06T02:08:12.358Z,986
2017-03-06T02:09:12.388Z,986.03
2017-03-06T02:10:12.425Z,986.04
2017-03-06T02:11:12.458Z,986.02
2017-03-06T02:12:12.490Z,986.07
2017-03-06T02:13:12.526Z,986.04
2017-03-06T02:14:12.558Z,986
2017-03-06T02:15:12.595Z,985.94
2017-03-06T02:16:12.625Z,985.99
2017-03-06T02:17:12.659Z,985.97
2017-03-06T02:18:12.695Z,985.97
2017-03-06T02:19:12.728Z,985.92
2017-03-06T02:20:12.761Z,985.97
2017-03-06T02:21:12.796Z,985.95
2017-03-06T02:22:12.829Z,985.94
2017-03-06T02:23:12.864Z,985.97
2017-03-06T02:24:12.899Z,985.97
2017-03-06T02:25:12.929Z,985.94
2017-03-06T02:26:12.966Z,985.94
2017-03-06T02:27:12.999Z,985.93
2017-03-06T02:28:13.033Z,985.94
2017-03-06T02:29:13.066Z,985.97
2017-03-06T02:30:13.100Z,985.98
2017-03-06T02:31:13.133Z,985.95
2017-03-06T02:32:13.168Z,985.98
2017-03-06T02:33:13.201Z,986
2017-03-06T02:34:13.235Z,986.03
2017-03-06T02:35:13.271Z,986.05
2017-03-06T02:36:13.301Z,986
2017-03-06T02:37:13.337Z,986.02
2017-03-06T02:38:13.369Z,985.97
2017-03-06T02:39:13.403Z,985.95
2017-03-06T02:40:13.437Z,985.95
2017-03-06T02:41:13.470Z,985.98
2017-03-06T02:42:13.505Z,985.99
2017-03-06T02:43:13.537Z,985.95
2017-03-06T02:44:13.572Z,985.96
2017-03-06T02:45:13.609Z,985.95
2017-03-06T02:46:13.639Z,985.98
2017-03-06T02:47:13.671Z,985.98
2017-03-06T02:48:13.706Z,985.98
2017-03-06T02:49:13.739Z,985.96
2017-03-06T02:50:13.772Z,985.97
2017-03-06T02:51:13.806Z,985.96
2017-03-06T02:52:13.841Z,986.02
2017-03-06T02:53:13.874Z,985.99
2017-03-06T02:54:13.908Z,985.96
2017-03-06T02:55:13.940Z,985.96
2017-03-06T02:56:13.974Z,985.96
2017-03-06T02:57:14.007Z,985.96
2017-03-06T02:58:14.042Z,985.97
2017-03-06T02:59:14.077Z,986.02
2017-03-06T03:00:14.108Z,986
2017-03-06T03:01:14.143Z,986
2017-03-06T03:02:14.177Z,986.02
2017-03-06T03:03:14.210Z,986.03
2017-03-06T03:04:14.243Z,986.05
2017-03-06T03:05:14.277Z,986.01
2017-03-06T03:06:14.312Z,986.02
2017-03-06T03:07:14.344Z,986.01
2017-03-06T03:08:14.379Z,986
2017-03-06T03:09:14.412Z,985.98
2017-03-06T03:10:14.449Z,985.99
2017-03-06T03:11:14.482Z,985.99
2017-03-06T03:12:14.513Z,985.97
2017-03-06T03:13:14.548Z,985.99
2017-03-06T03:14:14.580Z,985.96
2017-03-06T03:15:14.613Z,985.97
2017-03-06T03:16:14.649Z,985.95
2017-03-06T03:17:14.681Z,985.95
2017-03-06T03:18:14.715Z,985.97
2017-03-06T03:19:14.747Z,985.97
2017-03-06T03:20:14.785Z,986
2017-03-06T03:21:14.817Z,985.97
2017-03-06T03:22:14.850Z,985.98
2017-03-06T03:23:14.883Z,986
2017-03-06T03:24:14.917Z,985.96
2017-03-06T03:25:14.950Z,986
2017-03-06T03:26:14.986Z,985.95
2017-03-06T03:27:15.019Z,985.96
2017-03-06T03:28:15.053Z,985.95
2017-03-06T03:29:15.087Z,985.96
2017-03-06T03:30:15.121Z,985.98
2017-03-06T03:31:15.153Z,985.96
2017-03-06T03:32:15.189Z,985.95
2017-03-06T03:33:15.222Z,985.95
2017-03-06T03:34:15.256Z,985.95
2017-03-06T03:35:15.291Z,985.96
2017-03-06T03:36:15.322Z,985.99
2017-03-06T03:37:15.357Z,985.95
2017-03-06T03:38:15.393Z,986
2017-03-06T03:39:15.426Z,985.99
2017-03-06T03:40:15.457Z,985.98
2017-03-06T03:41:15.492Z,985.98
2017-03-06T03:42:15.526Z,985.99
2017-03-06T03:43:15.559Z,986.02
2017-03-06T03:44:15.593Z,986.01
2017-03-06T03:45:15.627Z,985.99
2017-03-06T03:46:15.661Z,985.93
2017-03-06T03:47:15.695Z,986
2017-03-06T03:48:15.728Z,985.97
2017-03-06T03:49:15.763Z,985.99
2017-03-06T03:50:15.796Z,985.95
2017-03-06T03:51:15.830Z,985.97
2017-03-06T03:52:15.863Z,985.93
2017-03-06T03:53:15.898Z,986
2017-03-06T03:54:15.932Z,985.97
2017-03-06T03:55:15.966Z,985.98
2017-03-06T03:56:15.999Z,986.01
2017-03-06T03:57:16.034Z,986.01
2017-03-06T03:58:16.065Z,985.99
2017-03-06T03:59:16.100Z,985.98
2017-03-06T04:00:16.135Z,985.99
2017-03-06T04:01:16.167Z,986
2017-03-06T04:02:16.202Z,985.95
2017-03-06T04:03:16.235Z,986.01
2017-03-06T04:04:16.269Z,985.99
2017-03-06T04:05:16.303Z,986.01
2017-03-06T04:06:16.337Z,985.97
2017-03-06T04:07:16.370Z,985.93
2017-03-06T04:08:16.404Z,985.92
2017-03-06T04:09:16.438Z,985.97
2017-03-06T04:10:16.472Z,985.96
2017-03-06T04:11:16.505Z,985.96
2017-03-06T04:12:16.539Z,985.92
2017-03-06T04:13:16.573Z,985.96
2017-03-06T04:14:16.606Z,985.95
2017-03-06T04:15:16.646Z,985.96
2017-03-06T04:16:16.674Z,985.95
2017-03-06T04:17:16.708Z,986
2017-03-06T04:18:16.743Z,985.95
2017-03-06T04:19:16.776Z,985.93
2017-03-06T04:20:16.812Z,985.93
2017-03-06T04:21:16.844Z,985.89
2017-03-06T04:22:16.878Z,985.92
2017-03-06T04:23:16.912Z,985.91
2017-03-06T04:24:16.945Z,985.88
2017-03-06T04:25:16.978Z,985.88
2017-03-06T04:26:17.013Z,985.91
2017-03-06T04:27:17.046Z,985.88
2017-03-06T04:28:17.080Z,985.87
2017-03-06T04:29:17.114Z,985.87
2017-03-06T04:30:17.149Z,985.85
2017-03-06T04:31:17.182Z,985.83
2017-03-06T04:32:17.215Z,985.84
2017-03-06T04:33:17.250Z,985.87
2017-03-06T04:34:17.283Z,985.86
2017-03-06T04:35:17.316Z,985.87
2017-03-06T04:36:17.350Z,985.86
2017-03-06T04:37:17.384Z,985.85
2017-03-06T04:38:17.419Z,985.84
2017-03-06T04:39:17.453Z,985.84
2017-03-06T04:40:17.488Z,985.85
2017-03-06T04:41:17.520Z,985.86
2017-03-06T04:42:17.554Z,985.85
2017-03-06T04:43:17.587Z,985.85
2017-03-06T04:44:17.622Z,985.85
2017-03-06T04:45:17.656Z,985.87
2017-03-06T04:46:17.689Z,985.89
2017-03-06T04:47:17.724Z,985.85
2017-03-06T04:48:17.757Z,985.89
2017-03-06T04:49:17.793Z,985.93
2017-03-06T04:50:17.826Z,985.92
2017-03-06T04:51:17.859Z,985.9
2017-03-06T04:52:17.895Z,985.95
2017-03-06T04:53:17.929Z,985.89
2017-03-06T04:54:17.961Z,985.9
2017-03-06T04:55:17.996Z,985.88
2017-03-06T04:56:18.029Z,985.88
2017-03-06T04:57:18.064Z,985.89
2017-03-06T04:58:18.097Z,985.91
2017-03-06T04:59:18.130Z,985.88
2017-03-06T05:00:18.165Z,985.89
2017-03-06T05:01:18.200Z,985.89
2017-03-06T05:02:18.235Z,985.9
2017-03-06T05:03:18.268Z,985.89
2017-03-06T05:04:18.302Z,985.91
2017-03-06T05:05:18.336Z,985.91
2017-03-06T05:06:18.372Z,985.94
2017-03-06T05:07:18.406Z,985.9
2017-03-06T05:08:18.438Z,985.91
2017-03-06T05:09:18.474Z,985.91
2017-03-06T05:10:18.505Z,985.93
2017-03-06T05:11:18.541Z,985.91
2017-03-06T05:12:18.574Z,985.93
2017-03-06T05:13:18.608Z,985.93
2017-03-06T05:14:18.644Z,985.94
2017-03-06T05:15:18.675Z,985.95
2017-03-06T05:16:18.708Z,985.97
2017-03-06T05:17:18.744Z,986.02
2017-03-06T05:18:18.779Z,985.99
2017-03-06T05:19:18.811Z,985.99
2017-03-06T05:20:18.844Z,986.01
2017-03-06T05:21:18.879Z,986
2017-03-06T05:22:18.915Z,986
2017-03-06T05:23:18.946Z,986.02
2017-03-06T05:24:18.982Z,985.99
2017-03-06T05:25:19.013Z,986.03
2017-03-06T05:26:19.048Z,986.01
2017-03-06T05:27:19.082Z,986.01
2017-03-06T05:28:19.118Z,986.03
2017-03-06T05:29:19.151Z,986.04
2017-03-06T05:30:19.182Z,986.03
2017-03-06T05:31:19.219Z,986
2017-03-06T05:32:19.252Z,986
2017-03-06T05:33:19.284Z,986.01
2017-03-06T05:34:19.319Z,986.01
2017-03-06T05:35:19.352Z,986.04
2017-03-06T05:36:19.387Z,986.01
2017-03-06T05:37:19.420Z,986.04
2017-03-06T05:38:19.453Z,986.06
2017-03-06T05:39:19.488Z,986.06
2017-03-06T05:40:19.522Z,986.09
2017-03-06T05:41:19.557Z,986.05
2017-03-06T05:42:19.591Z,986.09
2017-03-06T05:43:19.623Z,986.06
2017-03-06T05:44:19.658Z,986.08
2017-03-06T05:45:19.690Z,986.09
2017-03-06T05:46:19.724Z,986.11
2017-03-06T05:47:19.758Z,986.06
2017-03-06T05:48:19.792Z,986.1
2017-03-06T05:49:19.826Z,986.07
2017-03-06T05:50:19.859Z,986.1
2017-03-06T05:51:19.894Z,986.06
2017-03-06T05:52:19.927Z,986.1
2017-03-06T05:53:19.962Z,986.08
2017-03-06T05:54:19.999Z,986.1
2017-03-06T05:55:20.029Z,986.11
2017-03-06T05:56:20.063Z,986.09
2017-03-06T05:57:20.098Z,986.12
2017-03-06T05:58:20.130Z,986.11
2017-03-06T05:59:20.166Z,986.12
2017-03-06T06:00:20.199Z,986.13
2017-03-06T06:01:20.234Z,986.15
2017-03-06T06:02:20.268Z,986.13
2017-03-06T06:03:20.301Z,986.18
2017-03-06T06:04:20.336Z,986.15
2017-03-06T06:05:20.368Z,986.13
2017-03-06T06:06:20.405Z,986.22
2017-03-06T06:07:20.437Z,986.17
2017-03-06T06:08:20.471Z,986.18
2017-03-06T06:09:20.505Z,986.19
2017-03-06T06:10:20.538Z,986.19
2017-03-06T06:11:20.575Z,986.2
2017-03-06T06:12:20.606Z,986.21
2017-03-06T06:13:20.642Z,986.19
2017-03-06T06:14:20.676Z,986.23
2017-03-06T06:15:20.710Z,986.21
2017-03-06T06:16:20.743Z,986.21
2017-03-06T06:17:20.779Z,986.22
2017-03-06T06:18:20.812Z,986.2
2017-03-06T06:19:20.846Z,986.21
2017-03-06T06:20:20.880Z,986.21
2017-03-06T06:21:20.913Z,986.24
2017-03-06T06:22:20.947Z,986.19
2017-03-06T06:23:20.982Z,986.21
2017-03-06T06:24:21.017Z,986.17
2017-03-06T06:25:21.051Z,986.2
2017-03-06T06:26:21.087Z,986.22
2017-03-06T06:27:21.118Z,986.18
2017-03-06T06:28:21.158Z,986.19
2017-03-06T06:29:21.187Z,986.2
2017-03-06T06:30:21.221Z,986.2
2017-03-06T06:31:21.257Z,986.2
2017-03-06T06:32:21.291Z,986.23
2017-03-06T06:33:21.325Z,986.21
2017-03-06T06:34:21.361Z,986.22
2017-03-06T06:35:21.395Z,986.25
2017-03-06T06:36:21.427Z,986.27
2017-03-06T06:37:21.463Z,986.26
2017-03-06T06:38:21.496Z,986.24
2017-03-06T06:39:21.533Z,986.24
2017-03-06T06:40:21.567Z,986.27
2017-03-06T06:41:21.600Z,986.28
2017-03-06T06:42:21.635Z,986.29
2017-03-06T06:43:21.669Z,986.29
2017-03-06T06:44:21.703Z,986.3
2017-03-06T06:45:21.738Z,986.31
2017-03-06T06:46:21.771Z,986.34
2017-03-06T06:47:22.433Z,986.34
2017-03-06T06:48:21.842Z,986.32
2017-03-06T06:49:21.876Z,986.36
2017-03-06T06:50:22.320Z,986.3
2017-03-06T06:51:21.945Z,986.33
2017-03-06T06:52:21.978Z,986.34
2017-03-06T06:53:22.018Z,986.35
2017-03-06T06:54:22.047Z,986.31
2017-03-06T06:55:22.081Z,986.31
2017-03-06T06:56:22.115Z,986.34
2017-03-06T06:57:22.152Z,986.32
2017-03-06T06:58:22.184Z,986.28
2017-03-06T06:59:22.219Z,986.34
2017-03-06T07:00:22.254Z,986.31
2017-03-06T07:01:22.287Z,986.34
2017-03-06T07:02:22.322Z,986.29
2017-03-06T07:03:22.356Z,986.32
2017-03-06T07:04:22.391Z,986.29
2017-03-06T07:05:22.433Z,986.32
2017-03-06T07:06:22.459Z,986.34
2017-03-06T07:07:22.495Z,986.34
2017-03-06T07:08:22.531Z,986.34
2017-03-06T07:09:22.561Z,986.36
2017-03-06T07:10:22.598Z,986.29
2017-03-06T07:11:22.632Z,986.34
2017-03-06T07:12:22.666Z,986.33
2017-03-06T07:13:22.701Z,986.34
2017-03-06T07:14:22.752Z,986.33
2017-03-06T07:15:22.771Z,986.35
2017-03-06T07:16:22.803Z,986.39
2017-03-06T07:17:22.838Z,986.36
2017-03-06T07:18:22.875Z,986.41
2017-03-06T07:19:22.907Z,986.38
2017-03-06T07:20:22.940Z,986.41
2017-03-06T07:21:23.409Z,986.38
2017-03-06T07:22:23.011Z,986.34
2017-03-06T07:23:23.045Z,986.36
2017-03-06T07:24:23.078Z,986.31
2017-03-06T07:25:23.114Z,986.38
2017-03-06T07:26:23.147Z,986.31
2017-03-06T07:27:23.182Z,986.4
2017-03-06T07:28:23.221Z,986.37
2017-03-06T07:29:23.250Z,986.4
2017-03-06T07:30:23.285Z,986.4
2017-03-06T07:31:23.317Z,986.35
2017-03-06T07:32:23.354Z,986.34
2017-03-06T07:33:23.388Z,986.4
2017-03-06T07:34:23.421Z,986.39
2017-03-06T07:35:23.458Z,986.4
2017-03-06T07:36:23.490Z,986.4
2017-03-06T07:37:23.525Z,986.42
2017-03-06T07:38:23.559Z,986.46
2017-03-06T07:39:23.593Z,986.45
2017-03-06T07:40:23.630Z,986.37
2017-03-06T07:41:23.662Z,986.42
2017-03-06T07:42:23.698Z,986.42
2017-03-06T07:43:23.732Z,986.37
2017-03-06T07:44:23.767Z,986.46
2017-03-06T07:45:23.799Z,986.33
2017-03-06T07:46:23.834Z,986.4
2017-03-06T07:47:23.884Z,986.34
2017-03-06T07:48:23.903Z,986.36
2017-03-06T07:49:23.939Z,986.35
2017-03-06T07:50:23.971Z,986.35
2017-03-06T07:51:24.007Z,986.34
2017-03-06T07:52:24.042Z,986.25
2017-03-06T07:53:24.073Z,986.41
2017-03-06T07:54:24.109Z,986.41
2017-03-06T07:55:24.142Z,986.39
2017-03-06T07:56:24.179Z,986.44
2017-03-06T07:57:24.212Z,986.39
2017-03-06T07:58:24.244Z,986.45
2017-03-06T07:59:24.281Z,986.46
2017-03-06T08:00:24.313Z,986.46
2017-03-06T08:01:24.348Z,986.45
2017-03-06T08:02:24.382Z,986.37
2017-03-06T08:03:24.417Z,986.41
2017-03-06T08:04:24.448Z,986.32
2017-03-06T08:05:24.482Z,986.33
2017-03-06T08:06:24.519Z,986.37
2017-03-06T08:07:24.552Z,986.38
2017-03-06T08:08:24.590Z,986.28
2017-03-06T08:09:24.618Z,986.4
2017-03-06T08:10:24.658Z,986.3
2017-03-06T08:11:24.687Z,986.42
2017-03-06T08:12:24.720Z,986.3
2017-03-06T08:13:24.758Z,986.35
2017-03-06T08:14:24.789Z,986.37
2017-03-06T08:15:24.826Z,986.38
2017-03-06T08:16:24.856Z,986.36
2017-03-06T08:17:24.891Z,986.42
2017-03-06T08:18:24.924Z,986.43
2017-03-06T08:19:24.960Z,986.45
2017-03-06T08:20:24.994Z,986.41
2017-03-06T08:21:25.029Z,986.4
2017-03-06T08:22:25.067Z,986.4
2017-03-06T08:23:25.094Z,986.35
2017-03-06T08:24:25.129Z,986.36
2017-03-06T08:25:25.162Z,986.42
2017-03-06T08:26:25.197Z,986.39
2017-03-06T08:27:25.233Z,986.41
2017-03-06T08:28:25.266Z,986.34
2017-03-06T08:29:25.298Z,986.39
2017-03-06T08:30:25.335Z,986.38
2017-03-06T08:31:25.368Z,986.39
2017-03-06T08:32:25.400Z,986.41
2017-03-06T08:33:25.434Z,986.48
2017-03-06T08:34:25.468Z,986.27
2017-03-06T08:35:25.501Z,986.36
2017-03-06T08:36:25.534Z,986.34
2017-03-06T08:37:25.568Z,986.34
2017-03-06T08:38:25.605Z,986.34
2017-03-06T08:39:25.640Z,986.37
2017-03-06T08:40:25.670Z,986.26
2017-03-06T08:41:25.704Z,986.36
2017-03-06T08:42:25.739Z,986.36
2017-03-06T08:43:25.775Z,986.34
2017-03-06T08:44:25.807Z,986.32
2017-03-06T08:45:25.843Z,986.34
2017-03-06T08:46:25.877Z,986.32
2017-03-06T08:47:25.911Z,986.34
2017-03-06T08:48:25.944Z,986.28
2017-03-06T08:49:25.979Z,986.33
2017-03-06T08:50:26.013Z,986.36
2017-03-06T08:51:26.050Z,986.31
2017-03-06T08:52:26.081Z,986.31
2017-03-06T08:53:26.113Z,986.33
2017-03-06T08:54:26.148Z,986.41
2017-03-06T08:55:26.182Z,986.3
2017-03-06T08:56:26.216Z,986.3
2017-03-06T08:57:26.250Z,986.37
2017-03-06T08:58:26.286Z,986.41
2017-03-06T08:59:26.319Z,986.39
2017-03-06T09:00:26.354Z,986.35
2017-03-06T09:01:26.388Z,986.33
2017-03-06T09:02:26.421Z,986.36
2017-03-06T09:03:26.457Z,986.34
2017-03-06T09:04:26.491Z,986.36
2017-03-06T09:05:26.525Z,986.38
2017-03-06T09:06:26.561Z,986.38
2017-03-06T09:07:26.610Z,986.43
2017-03-06T09:08:26.629Z,986.42
2017-03-06T09:09:26.663Z,986.4
2017-03-06T09:10:26.697Z,986.45
2017-03-06T09:11:26.732Z,986.44
2017-03-06T09:12:26.765Z,986.44
2017-03-06T09:13:26.800Z,986.44
2017-03-06T09:14:26.834Z,986.45
2017-03-06T09:15:26.870Z,986.44
2017-03-06T09:16:26.904Z,986.51
2017-03-06T09:17:26.939Z,986.44
2017-03-06T09:18:26.973Z,986.48
2017-03-06T09:19:27.008Z,986.49
2017-03-06T09:20:27.061Z,986.51
2017-03-06T09:21:27.078Z,986.52
2017-03-06T09:22:27.112Z,986.43
2017-03-06T09:23:27.148Z,986.36
2017-03-06T09:24:27.181Z,986.48
2017-03-06T09:25:29.522Z,986.47
2017-03-06T09:26:27.364Z,986.55
2017-03-06T09:27:28.002Z,986.45
2017-03-06T09:28:27.319Z,986.45
2017-03-06T09:29:27.982Z,986.47
2017-03-06T09:30:27.388Z,986.45
2017-03-06T09:31:27.423Z,986.45
2017-03-06T09:32:27.458Z,986.43
2017-03-06T09:33:27.493Z,986.41
2017-03-06T09:34:27.528Z,986.43
2017-03-06T09:35:27.570Z,986.45
2017-03-06T09:36:27.596Z,986.41
2017-03-06T09:37:27.648Z,986.44
2017-03-06T09:38:27.686Z,986.45
2017-03-06T09:39:27.700Z,986.43
2017-03-06T09:40:27.734Z,986.41
2017-03-06T09:41:27.774Z,986.43
2017-03-06T09:42:28.287Z,986.42
2017-03-06T09:43:27.838Z,986.39
2017-03-06T09:44:27.873Z,986.43
2017-03-06T09:45:27.913Z,986.32
2017-03-06T09:46:27.943Z,986.35
2017-03-06T09:47:27.977Z,986.34
2017-03-06T09:48:28.012Z,986.35
2017-03-06T09:49:28.049Z,986.34
2017-03-06T09:50:28.083Z,986.36
2017-03-06T09:51:28.119Z,986.36
2017-03-06T09:52:28.153Z,986.4
2017-03-06T09:53:28.188Z,986.35
2017-03-06T09:54:28.224Z,986.39
2017-03-06T09:55:28.640Z,986.41
2017-03-06T09:56:28.291Z,986.33
2017-03-06T09:57:28.328Z,986.41
2017-03-06T09:58:28.360Z,986.38
2017-03-06T09:59:28.397Z,986.39
2017-03-06T10:00:28.432Z,986.37
2017-03-06T10:01:28.466Z,986.4
2017-03-06T10:02:28.500Z,986.41
2017-03-06T10:03:28.536Z,986.37
2017-03-06T10:04:28.571Z,986.39
2017-03-06T10:05:28.617Z,986.41
2017-03-06T10:06:28.645Z,986.36
2017-03-06T10:07:28.679Z,986.36
2017-03-06T10:08:28.801Z,986.38
2017-03-06T10:09:28.747Z,986.37
2017-03-06T10:10:28.783Z,986.36
2017-03-06T10:11:28.818Z,986.34
2017-03-06T10:12:28.899Z,986.4
2017-03-06T10:13:28.889Z,986.34
2017-03-06T10:14:28.926Z,986.33
2017-03-06T10:15:28.960Z,986.3
2017-03-06T10:16:29.006Z,986.39
2017-03-06T10:17:29.030Z,986.35
2017-03-06T10:18:29.065Z,986.36
2017-03-06T10:19:29.100Z,986.33
2017-03-06T10:20:29.135Z,986.32
2017-03-06T10:21:29.174Z,986.3
2017-03-06T10:22:29.206Z,986.3
2017-03-06T10:23:29.242Z,986.33
2017-03-06T10:24:29.277Z,986.33
2017-03-06T10:25:29.313Z,986.29
2017-03-06T10:26:29.347Z,986.33
2017-03-06T10:27:29.384Z,986.31
2017-03-06T10:28:29.420Z,986.31
2017-03-06T10:29:29.453Z,986.33
2017-03-06T10:30:29.489Z,986.3
2017-03-06T10:31:29.525Z,986.29
2017-03-06T10:32:29.560Z,986.28
2017-03-06T10:33:29.594Z,986.27
2017-03-06T10:34:29.630Z,986.32
2017-03-06T10:35:29.667Z,986.26
2017-03-06T10:36:29.742Z,986.29
2017-03-06T10:37:29.737Z,986.25
2017-03-06T10:38:29.774Z,986.26
2017-03-06T10:39:29.810Z,986.26
2017-03-06T10:40:29.843Z,986.23
2017-03-06T10:41:29.878Z,986.25
2017-03-06T10:42:29.914Z,986.25
2017-03-06T10:43:29.951Z,986.22
2017-03-06T10:44:29.983Z,986.19
2017-03-06T10:45:30.019Z,986.23
2017-03-06T10:46:30.057Z,986.24
2017-03-06T10:47:30.091Z,986.18
2017-03-06T10:48:30.126Z,986.23
2017-03-06T10:49:30.163Z,986.17
2017-03-06T10:50:30.198Z,986.22
2017-03-06T10:51:30.235Z,986.18
2017-03-06T10:52:30.268Z,986.2
2017-03-06T10:53:30.306Z,986.2
2017-03-06T10:54:30.341Z,986.2
2017-03-06T10:55:30.375Z,986.18
2017-03-06T10:56:30.412Z,986.18
2017-03-06T10:57:30.448Z,986.17
2017-03-06T10:58:30.484Z,986.18
2017-03-06T10:59:30.517Z,986.13
2017-03-06T11:00:30.556Z,986.12
2017-03-06T11:01:30.589Z,986.13
2017-03-06T11:02:30.625Z,986.12
2017-03-06T11:03:30.659Z,986.14
2017-03-06T11:04:30.696Z,986.09
2017-03-06T11:05:30.732Z,986.05
2017-03-06T11:06:30.768Z,986.14
2017-03-06T11:07:30.802Z,986.05
2017-03-06T11:08:30.840Z,986.11
2017-03-06T11:09:30.875Z,986.04
2017-03-06T11:10:30.911Z,986.04
2017-03-06T11:11:30.946Z,986.04
2017-03-06T11:12:30.982Z,986
2017-03-06T11:13:31.019Z,986.04
2017-03-06T11:14:31.055Z,986.05
2017-03-06T11:15:31.090Z,986.01
2017-03-06T11:16:31.125Z,986.02
2017-03-06T11:17:31.161Z,986.03
2017-03-06T11:18:31.198Z,986
2017-03-06T11:19:31.241Z,986.05
2017-03-06T11:20:31.269Z,986.03
2017-03-06T11:21:31.313Z,986.03
2017-03-06T11:22:31.450Z,986.06
2017-03-06T11:23:31.377Z,986.06
2017-03-06T11:24:31.414Z,986.05
2017-03-06T11:25:31.450Z,986.04
2017-03-06T11:26:31.488Z,985.97
2017-03-06T11:27:31.521Z,986
2017-03-06T11:28:31.556Z,985.97
2017-03-06T11:29:31.594Z,985.98
2017-03-06T11:30:31.628Z,985.97
2017-03-06T11:31:31.664Z,985.95
2017-03-06T11:32:31.698Z,985.94
2017-03-06T11:33:31.735Z,985.91
2017-03-06T11:34:31.772Z,985.91
2017-03-06T11:35:31.809Z,985.89
2017-03-06T11:36:31.844Z,985.94
2017-03-06T11:37:32.328Z,985.9
2017-03-06T11:38:31.916Z,985.89
2017-03-06T11:39:31.951Z,985.9
2017-03-06T11:40:31.984Z,985.89
2017-03-06T11:41:32.023Z,985.88
2017-03-06T11:42:32.058Z,985.89
2017-03-06T11:43:32.093Z,985.89
2017-03-06T11:44:32.132Z,985.87
2017-03-06T11:45:32.169Z,985.86
2017-03-06T11:46:32.202Z,985.82
2017-03-06T11:47:32.236Z,985.82
2017-03-06T11:48:32.274Z,985.9
2017-03-06T11:49:32.331Z,985.92
2017-03-06T11:50:32.345Z,985.85
2017-03-06T11:51:32.380Z,985.87
2017-03-06T11:52:32.416Z,985.88
2017-03-06T11:53:32.451Z,985.85
2017-03-06T11:54:32.487Z,985.78
2017-03-06T11:55:32.526Z,985.8
2017-03-06T11:56:32.560Z,985.77
2017-03-06T11:57:32.595Z,985.77
2017-03-06T11:58:32.633Z,985.77
2017-03-06T11:59:32.681Z,985.79
2017-03-06T12:00:32.705Z,985.77
2017-03-06T12:01:32.743Z,985.76
2017-03-06T12:02:32.780Z,985.8
2017-03-06T12:03:32.815Z,985.78
2017-03-06T12:04:32.854Z,985.74
2017-03-06T12:05:32.889Z,985.74
2017-03-06T12:06:32.931Z,985.73
2017-03-06T12:07:32.963Z,985.74
2017-03-06T12:08:33.000Z,985.74
2017-03-06T12:09:33.036Z,985.72
2017-03-06T12:10:33.075Z,985.7
2017-03-06T12:11:33.112Z,985.64
2017-03-06T12:12:33.149Z,985.67
2017-03-06T12:13:33.188Z,985.61
2017-03-06T12:14:33.222Z,985.65
2017-03-06T12:15:33.259Z,985.63
2017-03-06T12:16:33.306Z,985.63
2017-03-06T12:17:33.450Z,985.62
2017-03-06T12:18:33.370Z,985.6
2017-03-06T12:19:33.419Z,985.55
2017-03-06T12:20:33.444Z,985.56
2017-03-06T12:21:33.480Z,985.54
2017-03-06T12:22:33.518Z,985.5
2017-03-06T12:23:34.028Z,985.52
2017-03-06T12:24:33.593Z,985.49
2017-03-06T12:25:33.639Z,985.48
2017-03-06T12:26:33.667Z,985.48
2017-03-06T12:27:33.704Z,985.47
2017-03-06T12:28:33.738Z,985.43
2017-03-06T12:29:33.808Z,985.44
2017-03-06T12:30:33.814Z,985.4
2017-03-06T12:31:33.873Z,985.39
2017-03-06T12:32:33.886Z,985.42